sensor_id;sensor_type;location;lat;lon;timestamp;P1;durP1;ratioP1;P2;durP2;ratioP2
6243;SDS011;3155;49.940;8.450;2022-09-29T00:00:56;0.40;;;0.40;;
6243;SDS011;3155;49.940;8.450;2022-09-29T00:03:30;0.20;;;0.20;;
6243;SDS011;3155;49.940;8.450;2022-09-29T00:06:08;0.53;;;0.50;;
6243;SDS011;3155;49.940;8.450;2022-09-29T00:08:40;0.50;;;0.50;;
6243;SDS011;3155;49.940;8.450;2022-09-29T00:11:11;0.63;;;0.63;;
6243;SDS011;3155;49.940;8.450;2022-09-29T00:13:41;0.50;;;0.50;;
6243;SDS011;3155;49.940;8.450;2022-09-29T00:16:09;0.80;;;0.80;;
6243;SDS011;3155;49.940;8.450;2022-09-29T00:18:36;0.50;;;0.50;;
6243;SDS011;3155;49.940;8.450;2022-09-29T00:21:07;0.30;;;0.30;;
6243;SDS011;3155;49.940;8.450;2022-09-29T00:23:36;0.50;;;0.50;;
6243;SDS011;3155;49.940;8.450;2022-09-29T00:28:59;0.90;;;0.60;;
6243;SDS011;3155;49.940;8.450;2022-09-29T00:31:27;0.70;;;0.70;;
6243;SDS011;3155;49.940;8.450;2022-09-29T00:33:58;2.75;;;0.55;;
6243;SDS011;3155;49.940;8.450;2022-09-29T00:36:28;0.45;;;0.45;;
6243;SDS011;3155;49.940;8.450;2022-09-29T00:38:56;0.40;;;0.40;;
6243;SDS011;3155;49.940;8.450;2022-09-29T00:41:25;0.90;;;0.70;;
6243;SDS011;3155;49.940;8.450;2022-09-29T00:43:58;0.50;;;0.50;;
6243;SDS011;3155;49.940;8.450;2022-09-29T00:49:37;0.70;;;0.70;;
6243;SDS011;3155;49.940;8.450;2022-09-29T00:52:19;1.10;;;0.95;;
6243;SDS011;3155;49.940;8.450;2022-09-29T00:54:50;0.50;;;0.50;;
6243;SDS011;3155;49.940;8.450;2022-09-29T00:57:23;0.40;;;0.40;;
6243;SDS011;3155;49.940;8.450;2022-09-29T00:59:55;0.50;;;0.50;;
6243;SDS011;3155;49.940;8.450;2022-09-29T01:02:35;0.55;;;0.52;;
6243;SDS011;3155;49.940;8.450;2022-09-29T01:05:06;0.50;;;0.50;;
6243;SDS011;3155;49.940;8.450;2022-09-29T01:07:37;0.45;;;0.45;;
6243;SDS011;3155;49.940;8.450;2022-09-29T01:10:05;0.40;;;0.40;;
6243;SDS011;3155;49.940;8.450;2022-09-29T01:12:33;0.30;;;0.30;;
6243;SDS011;3155;49.940;8.450;2022-09-29T01:15:01;1.10;;;0.80;;
6243;SDS011;3155;49.940;8.450;2022-09-29T01:17:28;0.52;;;0.52;;
6243;SDS011;3155;49.940;8.450;2022-09-29T01:28:32;1.77;;;0.73;;
6243;SDS011;3155;49.940;8.450;2022-09-29T01:31:23;0.70;;;0.70;;
6243;SDS011;3155;49.940;8.450;2022-09-29T01:40:14;0.50;;;0.50;;
6243;SDS011;3155;49.940;8.450;2022-09-29T01:42:54;0.40;;;0.40;;
6243;SDS011;3155;49.940;8.450;2022-09-29T01:45:33;0.70;;;0.70;;
6243;SDS011;3155;49.940;8.450;2022-09-29T01:48:14;0.60;;;0.60;;
6243;SDS011;3155;49.940;8.450;2022-09-29T01:50:47;1.00;;;0.63;;
6243;SDS011;3155;49.940;8.450;2022-09-29T01:53:22;0.50;;;0.50;;
6243;SDS011;3155;49.940;8.450;2022-09-29T01:55:55;0.50;;;0.50;;
6243;SDS011;3155;49.940;8.450;2022-09-29T01:58:29;0.40;;;0.40;;
6243;SDS011;3155;49.940;8.450;2022-09-29T02:01:03;0.57;;;0.57;;
6243;SDS011;3155;49.940;8.450;2022-09-29T02:03:39;0.50;;;0.50;;
6243;SDS011;3155;49.940;8.450;2022-09-29T02:06:11;0.70;;;0.70;;
6243;SDS011;3155;49.940;8.450;2022-09-29T02:08:45;0.43;;;0.43;;
6243;SDS011;3155;49.940;8.450;2022-09-29T02:11:16;0.68;;;0.68;;
6243;SDS011;3155;49.940;8.450;2022-09-29T02:16:28;0.30;;;0.30;;
6243;SDS011;3155;49.940;8.450;2022-09-29T02:19:18;0.52;;;0.52;;
6243;SDS011;3155;49.940;8.450;2022-09-29T02:21:47;0.57;;;0.57;;
6243;SDS011;3155;49.940;8.450;2022-09-29T02:24:14;0.40;;;0.40;;
6243;SDS011;3155;49.940;8.450;2022-09-29T02:26:41;0.68;;;0.68;;
6243;SDS011;3155;49.940;8.450;2022-09-29T02:29:10;0.30;;;0.30;;
6243;SDS011;3155;49.940;8.450;2022-09-29T02:31:37;0.85;;;0.82;;
6243;SDS011;3155;49.940;8.450;2022-09-29T02:34:04;0.60;;;0.60;;
6243;SDS011;3155;49.940;8.450;2022-09-29T02:42:06;0.75;;;0.75;;
6243;SDS011;3155;49.940;8.450;2022-09-29T02:44:57;0.70;;;0.70;;
6243;SDS011;3155;49.940;8.450;2022-09-29T02:55:40;0.75;;;0.75;;
6243;SDS011;3155;49.940;8.450;2022-09-29T02:58:38;0.93;;;0.93;;
6243;SDS011;3155;49.940;8.450;2022-09-29T03:01:13;0.80;;;0.80;;
6243;SDS011;3155;49.940;8.450;2022-09-29T03:03:42;0.40;;;0.40;;
6243;SDS011;3155;49.940;8.450;2022-09-29T03:06:09;0.40;;;0.40;;
6243;SDS011;3155;49.940;8.450;2022-09-29T03:08:36;0.60;;;0.55;;
6243;SDS011;3155;49.940;8.450;2022-09-29T03:11:03;0.45;;;0.45;;
6243;SDS011;3155;49.940;8.450;2022-09-29T03:13:30;0.50;;;0.50;;
6243;SDS011;3155;49.940;8.450;2022-09-29T03:15:57;0.77;;;0.77;;
6243;SDS011;3155;49.940;8.450;2022-09-29T03:18:23;0.85;;;0.85;;
6243;SDS011;3155;49.940;8.450;2022-09-29T03:20:52;1.15;;;0.95;;
6243;SDS011;3155;49.940;8.450;2022-09-29T03:23:20;0.50;;;0.50;;
6243;SDS011;3155;49.940;8.450;2022-09-29T03:25:47;0.50;;;0.50;;
6243;SDS011;3155;49.940;8.450;2022-09-29T03:28:14;0.70;;;0.70;;
6243;SDS011;3155;49.940;8.450;2022-09-29T03:30:43;0.60;;;0.60;;
6243;SDS011;3155;49.940;8.450;2022-09-29T03:33:10;0.95;;;0.73;;
6243;SDS011;3155;49.940;8.450;2022-09-29T03:35:37;1.55;;;0.75;;
6243;SDS011;3155;49.940;8.450;2022-09-29T03:38:09;0.43;;;0.43;;
6243;SDS011;3155;49.940;8.450;2022-09-29T03:40:36;0.60;;;0.60;;
6243;SDS011;3155;49.940;8.450;2022-09-29T03:43:03;0.50;;;0.50;;
6243;SDS011;3155;49.940;8.450;2022-09-29T03:45:29;2.00;;;0.77;;
6243;SDS011;3155;49.940;8.450;2022-09-29T03:47:59;0.73;;;0.73;;
6243;SDS011;3155;49.940;8.450;2022-09-29T03:50:26;1.98;;;0.65;;
6243;SDS011;3155;49.940;8.450;2022-09-29T03:52:52;0.50;;;0.50;;
6243;SDS011;3155;49.940;8.450;2022-09-29T03:55:19;0.50;;;0.50;;
6243;SDS011;3155;49.940;8.450;2022-09-29T03:57:46;0.55;;;0.55;;
6243;SDS011;3155;49.940;8.450;2022-09-29T04:00:12;0.50;;;0.50;;
6243;SDS011;3155;49.940;8.450;2022-09-29T04:02:40;3.22;;;0.80;;
6243;SDS011;3155;49.940;8.450;2022-09-29T04:05:07;0.50;;;0.50;;
6243;SDS011;3155;49.940;8.450;2022-09-29T04:07:33;0.90;;;0.70;;
6243;SDS011;3155;49.940;8.450;2022-09-29T04:10:00;0.80;;;0.80;;
6243;SDS011;3155;49.940;8.450;2022-09-29T04:12:27;0.75;;;0.75;;
6243;SDS011;3155;49.940;8.450;2022-09-29T04:14:53;0.90;;;0.90;;
6243;SDS011;3155;49.940;8.450;2022-09-29T04:17:20;0.80;;;0.80;;
6243;SDS011;3155;49.940;8.450;2022-09-29T04:19:47;1.38;;;0.85;;
6243;SDS011;3155;49.940;8.450;2022-09-29T04:22:14;0.63;;;0.63;;
6243;SDS011;3155;49.940;8.450;2022-09-29T04:24:45;0.93;;;0.93;;
6243;SDS011;3155;49.940;8.450;2022-09-29T04:27:18;0.63;;;0.63;;
6243;SDS011;3155;49.940;8.450;2022-09-29T04:29:45;1.00;;;0.90;;
6243;SDS011;3155;49.940;8.450;2022-09-29T04:32:11;0.70;;;0.70;;
6243;SDS011;3155;49.940;8.450;2022-09-29T04:34:41;0.52;;;0.52;;
6243;SDS011;3155;49.940;8.450;2022-09-29T04:37:09;0.80;;;0.80;;
6243;SDS011;3155;49.940;8.450;2022-09-29T04:39:38;0.60;;;0.60;;
6243;SDS011;3155;49.940;8.450;2022-09-29T04:42:08;0.80;;;0.80;;
6243;SDS011;3155;49.940;8.450;2022-09-29T04:44:35;1.00;;;0.90;;
6243;SDS011;3155;49.940;8.450;2022-09-29T04:47:01;0.80;;;0.80;;
6243;SDS011;3155;49.940;8.450;2022-09-29T04:49:28;0.65;;;0.65;;
6243;SDS011;3155;49.940;8.450;2022-09-29T04:51:55;0.73;;;0.73;;
6243;SDS011;3155;49.940;8.450;2022-09-29T04:54:22;0.75;;;0.75;;
6243;SDS011;3155;49.940;8.450;2022-09-29T04:56:49;0.43;;;0.43;;
6243;SDS011;3155;49.940;8.450;2022-09-29T04:59:16;1.03;;;0.97;;
6243;SDS011;3155;49.940;8.450;2022-09-29T05:01:43;0.85;;;0.85;;
6243;SDS011;3155;49.940;8.450;2022-09-29T05:04:09;0.80;;;0.60;;
6243;SDS011;3155;49.940;8.450;2022-09-29T05:06:38;0.90;;;0.80;;
6243;SDS011;3155;49.940;8.450;2022-09-29T05:09:05;0.70;;;0.70;;
6243;SDS011;3155;49.940;8.450;2022-09-29T05:11:32;1.00;;;1.00;;
6243;SDS011;3155;49.940;8.450;2022-09-29T05:13:59;0.90;;;0.90;;
6243;SDS011;3155;49.940;8.450;2022-09-29T05:16:26;0.80;;;0.80;;
6243;SDS011;3155;49.940;8.450;2022-09-29T05:18:53;1.80;;;1.13;;
6243;SDS011;3155;49.940;8.450;2022-09-29T05:21:20;1.75;;;1.00;;
6243;SDS011;3155;49.940;8.450;2022-09-29T05:23:56;0.70;;;0.70;;
6243;SDS011;3155;49.940;8.450;2022-09-29T05:26:25;0.93;;;0.80;;
6243;SDS011;3155;49.940;8.450;2022-09-29T05:28:52;0.88;;;0.88;;
6243;SDS011;3155;49.940;8.450;2022-09-29T05:31:19;1.00;;;0.90;;
6243;SDS011;3155;49.940;8.450;2022-09-29T05:33:45;1.10;;;1.00;;
6243;SDS011;3155;49.940;8.450;2022-09-29T05:36:12;0.70;;;0.70;;
6243;SDS011;3155;49.940;8.450;2022-09-29T05:38:42;1.13;;;1.08;;
6243;SDS011;3155;49.940;8.450;2022-09-29T05:41:09;1.67;;;1.20;;
6243;SDS011;3155;49.940;8.450;2022-09-29T05:43:39;0.95;;;0.70;;
6243;SDS011;3155;49.940;8.450;2022-09-29T05:46:07;1.38;;;1.27;;
6243;SDS011;3155;49.940;8.450;2022-09-29T05:48:39;3.63;;;3.33;;
6243;SDS011;3155;49.940;8.450;2022-09-29T05:51:07;2.55;;;1.42;;
6243;SDS011;3155;49.940;8.450;2022-09-29T05:53:37;0.82;;;0.82;;
6243;SDS011;3155;49.940;8.450;2022-09-29T05:56:12;0.90;;;0.90;;
6243;SDS011;3155;49.940;8.450;2022-09-29T05:58:44;1.27;;;1.27;;
6243;SDS011;3155;49.940;8.450;2022-09-29T06:01:12;0.93;;;0.93;;
6243;SDS011;3155;49.940;8.450;2022-09-29T06:03:46;1.25;;;0.85;;
6243;SDS011;3155;49.940;8.450;2022-09-29T06:06:14;0.95;;;0.80;;
6243;SDS011;3155;49.940;8.450;2022-09-29T06:08:45;0.40;;;0.40;;
6243;SDS011;3155;49.940;8.450;2022-09-29T06:11:16;0.60;;;0.60;;
6243;SDS011;3155;49.940;8.450;2022-09-29T06:13:49;0.80;;;0.80;;
6243;SDS011;3155;49.940;8.450;2022-09-29T06:16:18;0.60;;;0.50;;
6243;SDS011;3155;49.940;8.450;2022-09-29T06:18:46;0.80;;;0.80;;
6243;SDS011;3155;49.940;8.450;2022-09-29T06:21:15;1.08;;;0.98;;
6243;SDS011;3155;49.940;8.450;2022-09-29T06:23:43;0.68;;;0.68;;
6243;SDS011;3155;49.940;8.450;2022-09-29T06:26:13;1.17;;;0.90;;
6243;SDS011;3155;49.940;8.450;2022-09-29T06:28:48;1.07;;;1.03;;
6243;SDS011;3155;49.940;8.450;2022-09-29T06:31:15;0.80;;;0.80;;
6243;SDS011;3155;49.940;8.450;2022-09-29T06:33:44;0.90;;;0.90;;
6243;SDS011;3155;49.940;8.450;2022-09-29T06:39:19;0.82;;;0.82;;
6243;SDS011;3155;49.940;8.450;2022-09-29T06:41:49;1.35;;;1.25;;
6243;SDS011;3155;49.940;8.450;2022-09-29T06:44:21;1.02;;;1.02;;
6243;SDS011;3155;49.940;8.450;2022-09-29T06:46:52;1.17;;;1.08;;
6243;SDS011;3155;49.940;8.450;2022-09-29T06:49:19;0.80;;;0.80;;
6243;SDS011;3155;49.940;8.450;2022-09-29T06:51:46;1.10;;;1.00;;
6243;SDS011;3155;49.940;8.450;2022-09-29T06:54:14;0.82;;;0.82;;
6243;SDS011;3155;49.940;8.450;2022-09-29T06:56:49;0.85;;;0.85;;
6243;SDS011;3155;49.940;8.450;2022-09-29T06:59:16;1.52;;;1.33;;
6243;SDS011;3155;49.940;8.450;2022-09-29T07:01:43;0.95;;;0.95;;
6243;SDS011;3155;49.940;8.450;2022-09-29T07:04:15;0.95;;;0.95;;
6243;SDS011;3155;49.940;8.450;2022-09-29T07:06:42;1.33;;;1.23;;
6243;SDS011;3155;49.940;8.450;2022-09-29T07:09:11;1.10;;;1.10;;
6243;SDS011;3155;49.940;8.450;2022-09-29T07:11:42;0.90;;;0.90;;
6243;SDS011;3155;49.940;8.450;2022-09-29T07:14:14;1.03;;;1.03;;
6243;SDS011;3155;49.940;8.450;2022-09-29T07:16:45;0.70;;;0.70;;
6243;SDS011;3155;49.940;8.450;2022-09-29T07:19:13;1.57;;;1.47;;
6243;SDS011;3155;49.940;8.450;2022-09-29T07:21:41;1.30;;;1.13;;
6243;SDS011;3155;49.940;8.450;2022-09-29T07:24:08;0.95;;;0.95;;
6243;SDS011;3155;49.940;8.450;2022-09-29T07:26:35;1.43;;;1.10;;
6243;SDS011;3155;49.940;8.450;2022-09-29T07:29:06;1.02;;;1.02;;
6243;SDS011;3155;49.940;8.450;2022-09-29T07:31:39;1.90;;;1.10;;
6243;SDS011;3155;49.940;8.450;2022-09-29T07:34:16;1.52;;;1.42;;
6243;SDS011;3155;49.940;8.450;2022-09-29T07:36:43;0.95;;;0.95;;
6243;SDS011;3155;49.940;8.450;2022-09-29T07:39:10;1.17;;;1.10;;
6243;SDS011;3155;49.940;8.450;2022-09-29T07:41:36;1.55;;;1.38;;
6243;SDS011;3155;49.940;8.450;2022-09-29T07:44:03;2.40;;;1.80;;
6243;SDS011;3155;49.940;8.450;2022-09-29T07:46:30;1.33;;;1.00;;
6243;SDS011;3155;49.940;8.450;2022-09-29T07:48:57;1.23;;;1.13;;
6243;SDS011;3155;49.940;8.450;2022-09-29T07:51:24;1.40;;;1.30;;
6243;SDS011;3155;49.940;8.450;2022-09-29T07:53:51;2.00;;;1.83;;
6243;SDS011;3155;49.940;8.450;2022-09-29T07:56:21;2.30;;;1.50;;
6243;SDS011;3155;49.940;8.450;2022-09-29T07:58:49;1.75;;;1.55;;
6243;SDS011;3155;49.940;8.450;2022-09-29T08:01:17;1.70;;;1.60;;
6243;SDS011;3155;49.940;8.450;2022-09-29T08:03:57;1.65;;;1.55;;
6243;SDS011;3155;49.940;8.450;2022-09-29T08:06:27;1.80;;;1.42;;
6243;SDS011;3155;49.940;8.450;2022-09-29T08:08:56;1.70;;;1.60;;
6243;SDS011;3155;49.940;8.450;2022-09-29T08:11:30;2.05;;;1.70;;
6243;SDS011;3155;49.940;8.450;2022-09-29T08:13:59;1.50;;;1.40;;
6243;SDS011;3155;49.940;8.450;2022-09-29T08:16:30;1.55;;;1.42;;
6243;SDS011;3155;49.940;8.450;2022-09-29T08:18:58;4.07;;;2.60;;
6243;SDS011;3155;49.940;8.450;2022-09-29T08:21:28;3.17;;;2.13;;
6243;SDS011;3155;49.940;8.450;2022-09-29T08:23:55;1.98;;;1.88;;
6243;SDS011;3155;49.940;8.450;2022-09-29T08:26:22;2.10;;;1.60;;
6243;SDS011;3155;49.940;8.450;2022-09-29T08:29:06;2.00;;;1.73;;
6243;SDS011;3155;49.940;8.450;2022-09-29T08:31:34;2.90;;;1.98;;
6243;SDS011;3155;49.940;8.450;2022-09-29T08:34:03;1.80;;;1.70;;
6243;SDS011;3155;49.940;8.450;2022-09-29T08:36:30;2.60;;;1.55;;
6243;SDS011;3155;49.940;8.450;2022-09-29T08:38:57;1.20;;;1.17;;
6243;SDS011;3155;49.940;8.450;2022-09-29T08:44:44;3.35;;;1.75;;
6243;SDS011;3155;49.940;8.450;2022-09-29T08:47:05;2.63;;;1.88;;
6243;SDS011;3155;49.940;8.450;2022-09-29T08:49:41;2.28;;;1.90;;
6243;SDS011;3155;49.940;8.450;2022-09-29T08:52:11;3.05;;;2.10;;
6243;SDS011;3155;49.940;8.450;2022-09-29T08:54:43;1.77;;;1.48;;
6243;SDS011;3155;49.940;8.450;2022-09-29T08:57:15;3.78;;;2.40;;
6243;SDS011;3155;49.940;8.450;2022-09-29T08:59:49;3.92;;;2.45;;
6243;SDS011;3155;49.940;8.450;2022-09-29T09:05:23;1.70;;;1.58;;
6243;SDS011;3155;49.940;8.450;2022-09-29T09:17:08;1.98;;;1.85;;
6243;SDS011;3155;49.940;8.450;2022-09-29T09:22:58;2.83;;;2.10;;
6243;SDS011;3155;49.940;8.450;2022-09-29T09:25:49;2.95;;;2.22;;
6243;SDS011;3155;49.940;8.450;2022-09-29T09:31:07;2.28;;;2.08;;
6243;SDS011;3155;49.940;8.450;2022-09-29T09:36:37;2.47;;;2.23;;
6243;SDS011;3155;49.940;8.450;2022-09-29T09:41:39;2.50;;;1.85;;
6243;SDS011;3155;49.940;8.450;2022-09-29T09:44:09;1.65;;;1.55;;
6243;SDS011;3155;49.940;8.450;2022-09-29T09:46:39;2.10;;;2.00;;
6243;SDS011;3155;49.940;8.450;2022-09-29T09:49:19;4.28;;;2.92;;
6243;SDS011;3155;49.940;8.450;2022-09-29T09:51:55;2.70;;;2.22;;
6243;SDS011;3155;49.940;8.450;2022-09-29T09:54:32;2.75;;;2.20;;
6243;SDS011;3155;49.940;8.450;2022-09-29T09:57:02;2.00;;;1.90;;
6243;SDS011;3155;49.940;8.450;2022-09-29T09:59:39;3.15;;;1.95;;
6243;SDS011;3155;49.940;8.450;2022-09-29T10:02:19;2.30;;;2.05;;
6243;SDS011;3155;49.940;8.450;2022-09-29T10:04:48;3.35;;;2.47;;
6243;SDS011;3155;49.940;8.450;2022-09-29T10:07:16;2.40;;;2.08;;
6243;SDS011;3155;49.940;8.450;2022-09-29T10:09:47;2.30;;;2.00;;
6243;SDS011;3155;49.940;8.450;2022-09-29T10:12:16;3.13;;;2.03;;
6243;SDS011;3155;49.940;8.450;2022-09-29T10:14:54;2.28;;;1.88;;
6243;SDS011;3155;49.940;8.450;2022-09-29T10:17:24;2.85;;;2.10;;
6243;SDS011;3155;49.940;8.450;2022-09-29T10:20:05;3.17;;;2.38;;
6243;SDS011;3155;49.940;8.450;2022-09-29T10:22:33;2.03;;;1.92;;
6243;SDS011;3155;49.940;8.450;2022-09-29T10:27:34;3.33;;;2.57;;
6243;SDS011;3155;49.940;8.450;2022-09-29T10:30:14;3.58;;;2.53;;
6243;SDS011;3155;49.940;8.450;2022-09-29T10:32:42;3.08;;;2.05;;
6243;SDS011;3155;49.940;8.450;2022-09-29T10:37:45;3.75;;;2.22;;
6243;SDS011;3155;49.940;8.450;2022-09-29T10:40:14;3.43;;;1.97;;
6243;SDS011;3155;49.940;8.450;2022-09-29T10:42:49;2.13;;;1.98;;
6243;SDS011;3155;49.940;8.450;2022-09-29T10:47:48;3.30;;;2.47;;
6243;SDS011;3155;49.940;8.450;2022-09-29T10:50:36;2.30;;;2.10;;
6243;SDS011;3155;49.940;8.450;2022-09-29T10:55:52;3.90;;;2.25;;
6243;SDS011;3155;49.940;8.450;2022-09-29T11:01:14;4.63;;;2.13;;
6243;SDS011;3155;49.940;8.450;2022-09-29T11:03:52;2.10;;;2.00;;
6243;SDS011;3155;49.940;8.450;2022-09-29T11:06:24;2.43;;;2.23;;
6243;SDS011;3155;49.940;8.450;2022-09-29T11:11:53;2.63;;;1.92;;
6243;SDS011;3155;49.940;8.450;2022-09-29T11:19:45;2.97;;;2.33;;
6243;SDS011;3155;49.940;8.450;2022-09-29T11:40:40;2.60;;;2.28;;
6243;SDS011;3155;49.940;8.450;2022-09-29T11:46:20;3.60;;;2.13;;
6243;SDS011;3155;49.940;8.450;2022-09-29T12:04:49;3.40;;;2.35;;
6243;SDS011;3155;49.940;8.450;2022-09-29T12:10:01;2.17;;;1.97;;
6243;SDS011;3155;49.940;8.450;2022-09-29T12:17:49;2.10;;;2.00;;
6243;SDS011;3155;49.940;8.450;2022-09-29T12:22:45;2.75;;;1.88;;
6243;SDS011;3155;49.940;8.450;2022-09-29T12:25:17;3.67;;;2.40;;
6243;SDS011;3155;49.940;8.450;2022-09-29T12:27:45;2.40;;;2.20;;
6243;SDS011;3155;49.940;8.450;2022-09-29T12:30:26;2.55;;;2.20;;
6243;SDS011;3155;49.940;8.450;2022-09-29T12:35:30;2.47;;;2.13;;
6243;SDS011;3155;49.940;8.450;2022-09-29T12:40:43;2.38;;;2.25;;
6243;SDS011;3155;49.940;8.450;2022-09-29T12:45:50;3.70;;;3.20;;
6243;SDS011;3155;49.940;8.450;2022-09-29T12:51:11;4.32;;;1.95;;
6243;SDS011;3155;49.940;8.450;2022-09-29T12:56:35;2.97;;;2.33;;
6243;SDS011;3155;49.940;8.450;2022-09-29T13:28:24;1.90;;;1.55;;
6243;SDS011;3155;49.940;8.450;2022-09-29T13:34:00;1.35;;;1.20;;
6243;SDS011;3155;49.940;8.450;2022-09-29T13:36:29;2.92;;;1.75;;
6243;SDS011;3155;49.940;8.450;2022-09-29T13:39:04;1.57;;;1.47;;
6243;SDS011;3155;49.940;8.450;2022-09-29T13:41:46;2.30;;;1.65;;
6243;SDS011;3155;49.940;8.450;2022-09-29T13:46:43;2.58;;;1.58;;
6243;SDS011;3155;49.940;8.450;2022-09-29T13:54:35;1.20;;;1.10;;
6243;SDS011;3155;49.940;8.450;2022-09-29T14:00:29;0.77;;;0.77;;
6243;SDS011;3155;49.940;8.450;2022-09-29T14:02:46;0.77;;;0.77;;
6243;SDS011;3155;49.940;8.450;2022-09-29T14:10:38;0.80;;;0.80;;
6243;SDS011;3155;49.940;8.450;2022-09-29T14:13:14;0.70;;;0.70;;
6243;SDS011;3155;49.940;8.450;2022-09-29T14:18:54;1.17;;;0.77;;
6243;SDS011;3155;49.940;8.450;2022-09-29T14:21:53;0.50;;;0.50;;
6243;SDS011;3155;49.940;8.450;2022-09-29T14:32:46;0.80;;;0.80;;
6243;SDS011;3155;49.940;8.450;2022-09-29T14:35:39;0.82;;;0.63;;
6243;SDS011;3155;49.940;8.450;2022-09-29T14:43:39;0.50;;;0.50;;
6243;SDS011;3155;49.940;8.450;2022-09-29T14:55:12;1.35;;;0.65;;
6243;SDS011;3155;49.940;8.450;2022-09-29T15:03:45;0.98;;;0.60;;
6243;SDS011;3155;49.940;8.450;2022-09-29T15:06:13;0.50;;;0.50;;
6243;SDS011;3155;49.940;8.450;2022-09-29T15:08:52;0.60;;;0.60;;
6243;SDS011;3155;49.940;8.450;2022-09-29T15:11:23;0.45;;;0.45;;
6243;SDS011;3155;49.940;8.450;2022-09-29T15:27:37;0.50;;;0.50;;
6243;SDS011;3155;49.940;8.450;2022-09-29T15:30:15;0.30;;;0.30;;
6243;SDS011;3155;49.940;8.450;2022-09-29T15:32:44;0.30;;;0.30;;
6243;SDS011;3155;49.940;8.450;2022-09-29T15:35:14;1.73;;;0.90;;
6243;SDS011;3155;49.940;8.450;2022-09-29T15:37:58;1.27;;;1.17;;
6243;SDS011;3155;49.940;8.450;2022-09-29T15:40:35;1.05;;;0.55;;
6243;SDS011;3155;49.940;8.450;2022-09-29T15:43:02;0.50;;;0.50;;
6243;SDS011;3155;49.940;8.450;2022-09-29T15:45:51;0.30;;;0.30;;
6243;SDS011;3155;49.940;8.450;2022-09-29T15:48:21;0.40;;;0.40;;
6243;SDS011;3155;49.940;8.450;2022-09-29T15:50:48;0.50;;;0.30;;
6243;SDS011;3155;49.940;8.450;2022-09-29T15:53:16;0.40;;;0.40;;
6243;SDS011;3155;49.940;8.450;2022-09-29T15:55:44;0.50;;;0.50;;
6243;SDS011;3155;49.940;8.450;2022-09-29T16:01:03;0.20;;;0.20;;
6243;SDS011;3155;49.940;8.450;2022-09-29T16:06:13;0.38;;;0.38;;
6243;SDS011;3155;49.940;8.450;2022-09-29T16:08:46;0.30;;;0.28;;
6243;SDS011;3155;49.940;8.450;2022-09-29T16:11:19;0.30;;;0.30;;
6243;SDS011;3155;49.940;8.450;2022-09-29T16:13:52;0.52;;;0.52;;
6243;SDS011;3155;49.940;8.450;2022-09-29T16:16:39;0.40;;;0.40;;
6243;SDS011;3155;49.940;8.450;2022-09-29T16:19:21;0.47;;;0.47;;
6243;SDS011;3155;49.940;8.450;2022-09-29T16:21:55;0.40;;;0.40;;
6243;SDS011;3155;49.940;8.450;2022-09-29T16:24:30;0.40;;;0.40;;
6243;SDS011;3155;49.940;8.450;2022-09-29T16:27:04;0.40;;;0.40;;
6243;SDS011;3155;49.940;8.450;2022-09-29T16:29:39;0.40;;;0.40;;
6243;SDS011;3155;49.940;8.450;2022-09-29T16:34:52;0.80;;;0.45;;
6243;SDS011;3155;49.940;8.450;2022-09-29T16:37:18;0.45;;;0.45;;
6243;SDS011;3155;49.940;8.450;2022-09-29T16:39:46;0.50;;;0.50;;
6243;SDS011;3155;49.940;8.450;2022-09-29T16:42:18;1.27;;;0.60;;
6243;SDS011;3155;49.940;8.450;2022-09-29T16:44:51;0.50;;;0.50;;
6243;SDS011;3155;49.940;8.450;2022-09-29T16:47:21;0.50;;;0.50;;
6243;SDS011;3155;49.940;8.450;2022-09-29T16:52:46;0.60;;;0.60;;
6243;SDS011;3155;49.940;8.450;2022-09-29T17:00:22;0.40;;;0.40;;
6243;SDS011;3155;49.940;8.450;2022-09-29T17:02:52;0.50;;;0.50;;
6243;SDS011;3155;49.940;8.450;2022-09-29T17:05:23;0.50;;;0.50;;
6243;SDS011;3155;49.940;8.450;2022-09-29T17:08:00;0.45;;;0.45;;
6243;SDS011;3155;49.940;8.450;2022-09-29T17:10:28;0.45;;;0.45;;
6243;SDS011;3155;49.940;8.450;2022-09-29T17:12:55;0.40;;;0.40;;
6243;SDS011;3155;49.940;8.450;2022-09-29T17:15:23;0.90;;;0.60;;
6243;SDS011;3155;49.940;8.450;2022-09-29T17:17:50;0.80;;;0.70;;
6243;SDS011;3155;49.940;8.450;2022-09-29T17:20:21;0.68;;;0.60;;
6243;SDS011;3155;49.940;8.450;2022-09-29T17:22:55;0.40;;;0.40;;
6243;SDS011;3155;49.940;8.450;2022-09-29T17:25:24;0.60;;;0.60;;
6243;SDS011;3155;49.940;8.450;2022-09-29T17:27:51;0.40;;;0.40;;
6243;SDS011;3155;49.940;8.450;2022-09-29T17:30:37;1.60;;;0.77;;
6243;SDS011;3155;49.940;8.450;2022-09-29T17:33:05;0.50;;;0.50;;
6243;SDS011;3155;49.940;8.450;2022-09-29T17:35:39;0.55;;;0.55;;
6243;SDS011;3155;49.940;8.450;2022-09-29T17:38:08;0.55;;;0.55;;
6243;SDS011;3155;49.940;8.450;2022-09-29T17:43:43;1.30;;;0.70;;
6243;SDS011;3155;49.940;8.450;2022-09-29T17:46:13;0.52;;;0.52;;
6243;SDS011;3155;49.940;8.450;2022-09-29T17:48:41;1.30;;;0.85;;
6243;SDS011;3155;49.940;8.450;2022-09-29T17:51:10;0.60;;;0.60;;
6243;SDS011;3155;49.940;8.450;2022-09-29T17:53:38;0.75;;;0.55;;
6243;SDS011;3155;49.940;8.450;2022-09-29T17:56:08;0.40;;;0.40;;
6243;SDS011;3155;49.940;8.450;2022-09-29T17:58:49;0.73;;;0.32;;
6243;SDS011;3155;49.940;8.450;2022-09-29T18:01:17;0.50;;;0.50;;
6243;SDS011;3155;49.940;8.450;2022-09-29T18:03:45;1.00;;;0.60;;
6243;SDS011;3155;49.940;8.450;2022-09-29T18:06:15;0.70;;;0.70;;
6243;SDS011;3155;49.940;8.450;2022-09-29T18:08:47;0.60;;;0.60;;
6243;SDS011;3155;49.940;8.450;2022-09-29T18:11:20;0.65;;;0.65;;
6243;SDS011;3155;49.940;8.450;2022-09-29T18:13:48;0.82;;;0.80;;
6243;SDS011;3155;49.940;8.450;2022-09-29T18:16:19;1.63;;;0.90;;
6243;SDS011;3155;49.940;8.450;2022-09-29T18:18:46;1.10;;;0.90;;
6243;SDS011;3155;49.940;8.450;2022-09-29T18:21:14;0.70;;;0.70;;
6243;SDS011;3155;49.940;8.450;2022-09-29T18:23:51;1.23;;;1.20;;
6243;SDS011;3155;49.940;8.450;2022-09-29T18:26:18;0.80;;;0.80;;
6243;SDS011;3155;49.940;8.450;2022-09-29T18:28:46;0.60;;;0.60;;
6243;SDS011;3155;49.940;8.450;2022-09-29T18:31:23;0.70;;;0.70;;
6243;SDS011;3155;49.940;8.450;2022-09-29T18:33:53;1.63;;;1.13;;
6243;SDS011;3155;49.940;8.450;2022-09-29T18:36:20;0.93;;;0.75;;
6243;SDS011;3155;49.940;8.450;2022-09-29T18:38:47;0.90;;;0.80;;
6243;SDS011;3155;49.940;8.450;2022-09-29T18:41:15;0.85;;;0.85;;
6243;SDS011;3155;49.940;8.450;2022-09-29T18:43:46;1.27;;;0.90;;
6243;SDS011;3155;49.940;8.450;2022-09-29T18:46:13;0.60;;;0.60;;
6243;SDS011;3155;49.940;8.450;2022-09-29T18:48:40;0.82;;;0.75;;
6243;SDS011;3155;49.940;8.450;2022-09-29T18:51:07;0.88;;;0.88;;
6243;SDS011;3155;49.940;8.450;2022-09-29T18:53:37;0.68;;;0.68;;
6243;SDS011;3155;49.940;8.450;2022-09-29T18:56:08;1.00;;;0.90;;
6243;SDS011;3155;49.940;8.450;2022-09-29T18:58:40;1.63;;;1.08;;
6243;SDS011;3155;49.940;8.450;2022-09-29T19:01:07;2.40;;;1.73;;
6243;SDS011;3155;49.940;8.450;2022-09-29T19:03:39;2.15;;;1.08;;
6243;SDS011;3155;49.940;8.450;2022-09-29T19:06:07;2.45;;;1.40;;
6243;SDS011;3155;49.940;8.450;2022-09-29T19:08:38;0.90;;;0.90;;
6243;SDS011;3155;49.940;8.450;2022-09-29T19:11:11;1.40;;;1.40;;
6243;SDS011;3155;49.940;8.450;2022-09-29T19:13:43;1.48;;;1.38;;
6243;SDS011;3155;49.940;8.450;2022-09-29T19:16:10;1.30;;;1.20;;
6243;SDS011;3155;49.940;8.450;2022-09-29T19:18:38;1.50;;;1.35;;
6243;SDS011;3155;49.940;8.450;2022-09-29T19:21:09;0.80;;;0.80;;
6243;SDS011;3155;49.940;8.450;2022-09-29T19:23:37;0.85;;;0.80;;
6243;SDS011;3155;49.940;8.450;2022-09-29T19:26:11;1.00;;;0.75;;
6243;SDS011;3155;49.940;8.450;2022-09-29T19:28:40;1.00;;;1.00;;
6243;SDS011;3155;49.940;8.450;2022-09-29T19:31:08;0.55;;;0.55;;
6243;SDS011;3155;49.940;8.450;2022-09-29T19:33:38;0.60;;;0.60;;
6243;SDS011;3155;49.940;8.450;2022-09-29T19:36:07;0.60;;;0.60;;
6243;SDS011;3155;49.940;8.450;2022-09-29T19:38:41;1.45;;;0.63;;
6243;SDS011;3155;49.940;8.450;2022-09-29T19:41:16;1.33;;;1.10;;
6243;SDS011;3155;49.940;8.450;2022-09-29T19:43:50;0.98;;;0.77;;
6243;SDS011;3155;49.940;8.450;2022-09-29T19:46:17;0.60;;;0.60;;
6243;SDS011;3155;49.940;8.450;2022-09-29T19:48:45;0.60;;;0.60;;
6243;SDS011;3155;49.940;8.450;2022-09-29T19:51:15;0.80;;;0.80;;
6243;SDS011;3155;49.940;8.450;2022-09-29T19:54:04;0.90;;;0.75;;
6243;SDS011;3155;49.940;8.450;2022-09-29T19:56:37;2.40;;;1.00;;
6243;SDS011;3155;49.940;8.450;2022-09-29T19:59:18;1.80;;;0.98;;
6243;SDS011;3155;49.940;8.450;2022-09-29T20:01:48;0.90;;;0.90;;